sensor_id;sensor_type;location;lat;lon;timestamp;P1;durP1;ratioP1;P2;durP2;ratioP2
13687;SDS011;6916;51.504;7.416;2022-08-25T00:01:47;5.32;;;3.20;;
13687;SDS011;6916;51.504;7.416;2022-08-25T00:07:11;8.00;;;3.95;;
13687;SDS011;6916;51.504;7.416;2022-08-25T00:12:33;6.20;;;3.30;;
13687;SDS011;6916;51.504;7.416;2022-08-25T00:17:55;6.35;;;3.78;;
13687;SDS011;6916;51.504;7.416;2022-08-25T00:23:18;5.80;;;3.10;;
13687;SDS011;6916;51.504;7.416;2022-08-25T00:28:41;7.28;;;3.42;;
13687;SDS011;6916;51.504;7.416;2022-08-25T00:34:09;4.30;;;3.25;;
13687;SDS011;6916;51.504;7.416;2022-08-25T00:39:34;4.15;;;2.88;;
13687;SDS011;6916;51.504;7.416;2022-08-25T00:44:56;3.35;;;3.05;;
13687;SDS011;6916;51.504;7.416;2022-08-25T00:50:19;5.82;;;2.92;;
13687;SDS011;6916;51.504;7.416;2022-08-25T00:55:43;6.93;;;3.20;;
13687;SDS011;6916;51.504;7.416;2022-08-25T01:01:05;4.75;;;2.70;;
13687;SDS011;6916;51.504;7.416;2022-08-25T01:06:27;3.83;;;3.03;;
13687;SDS011;6916;51.504;7.416;2022-08-25T01:11:50;5.28;;;3.03;;
13687;SDS011;6916;51.504;7.416;2022-08-25T01:17:13;4.35;;;2.60;;
13687;SDS011;6916;51.504;7.416;2022-08-25T01:22:35;7.50;;;3.30;;
13687;SDS011;6916;51.504;7.416;2022-08-25T01:27:58;5.15;;;3.25;;
13687;SDS011;6916;51.504;7.416;2022-08-25T01:33:20;6.50;;;2.90;;
13687;SDS011;6916;51.504;7.416;2022-08-25T01:38:43;4.90;;;2.30;;
13687;SDS011;6916;51.504;7.416;2022-08-25T01:44:05;7.53;;;3.13;;
13687;SDS011;6916;51.504;7.416;2022-08-25T01:49:28;3.28;;;2.85;;
13687;SDS011;6916;51.504;7.416;2022-08-25T01:54:50;4.05;;;2.78;;
13687;SDS011;6916;51.504;7.416;2022-08-25T02:00:13;4.97;;;2.50;;
13687;SDS011;6916;51.504;7.416;2022-08-25T02:05:36;7.10;;;2.95;;
13687;SDS011;6916;51.504;7.416;2022-08-25T02:10:59;5.30;;;2.75;;
13687;SDS011;6916;51.504;7.416;2022-08-25T02:16:25;4.60;;;2.85;;
13687;SDS011;6916;51.504;7.416;2022-08-25T02:21:49;7.03;;;2.70;;
13687;SDS011;6916;51.504;7.416;2022-08-25T02:27:12;5.82;;;2.67;;
13687;SDS011;6916;51.504;7.416;2022-08-25T02:32:34;5.68;;;2.83;;
13687;SDS011;6916;51.504;7.416;2022-08-25T02:37:56;6.38;;;2.83;;
13687;SDS011;6916;51.504;7.416;2022-08-25T02:43:18;5.90;;;2.70;;
13687;SDS011;6916;51.504;7.416;2022-08-25T02:48:40;5.53;;;2.78;;
13687;SDS011;6916;51.504;7.416;2022-08-25T02:54:03;4.63;;;2.60;;
13687;SDS011;6916;51.504;7.416;2022-08-25T02:59:26;8.38;;;3.40;;
13687;SDS011;6916;51.504;7.416;2022-08-25T03:04:49;7.13;;;3.22;;
13687;SDS011;6916;51.504;7.416;2022-08-25T03:10:14;6.28;;;2.65;;
13687;SDS011;6916;51.504;7.416;2022-08-25T03:15:37;6.13;;;3.15;;
13687;SDS011;6916;51.504;7.416;2022-08-25T03:21:00;7.30;;;3.15;;
13687;SDS011;6916;51.504;7.416;2022-08-25T03:26:23;5.13;;;2.83;;
13687;SDS011;6916;51.504;7.416;2022-08-25T03:32:03;3.92;;;2.55;;
13687;SDS011;6916;51.504;7.416;2022-08-25T03:37:26;4.18;;;3.15;;
13687;SDS011;6916;51.504;7.416;2022-08-25T03:42:48;4.05;;;2.47;;
13687;SDS011;6916;51.504;7.416;2022-08-25T03:48:10;6.68;;;3.40;;
13687;SDS011;6916;51.504;7.416;2022-08-25T03:53:33;5.22;;;2.63;;
13687;SDS011;6916;51.504;7.416;2022-08-25T03:58:55;7.18;;;3.10;;
13687;SDS011;6916;51.504;7.416;2022-08-25T04:04:17;3.38;;;2.75;;
13687;SDS011;6916;51.504;7.416;2022-08-25T04:09:39;4.93;;;2.92;;
13687;SDS011;6916;51.504;7.416;2022-08-25T04:15:03;6.00;;;3.03;;
13687;SDS011;6916;51.504;7.416;2022-08-25T04:20:25;8.63;;;3.25;;
13687;SDS011;6916;51.504;7.416;2022-08-25T04:25:47;4.22;;;2.97;;
13687;SDS011;6916;51.504;7.416;2022-08-25T04:31:10;5.95;;;3.25;;
13687;SDS011;6916;51.504;7.416;2022-08-25T04:36:35;6.45;;;3.40;;
13687;SDS011;6916;51.504;7.416;2022-08-25T04:41:57;4.18;;;2.83;;
13687;SDS011;6916;51.504;7.416;2022-08-25T04:47:21;4.22;;;3.20;;
13687;SDS011;6916;51.504;7.416;2022-08-25T04:52:43;8.88;;;3.10;;
13687;SDS011;6916;51.504;7.416;2022-08-25T04:58:05;6.68;;;3.53;;
13687;SDS011;6916;51.504;7.416;2022-08-25T05:03:27;5.82;;;3.78;;
13687;SDS011;6916;51.504;7.416;2022-08-25T05:08:50;4.70;;;3.22;;
13687;SDS011;6916;51.504;7.416;2022-08-25T05:14:12;6.20;;;3.38;;
13687;SDS011;6916;51.504;7.416;2022-08-25T05:19:36;6.88;;;4.07;;
13687;SDS011;6916;51.504;7.416;2022-08-25T16:01:02;6.85;;;3.88;;
13687;SDS011;6916;51.504;7.416;2022-08-25T16:06:25;6.22;;;3.85;;
13687;SDS011;6916;51.504;7.416;2022-08-25T16:11:47;6.70;;;3.78;;
13687;SDS011;6916;51.504;7.416;2022-08-25T16:17:09;5.75;;;3.85;;
13687;SDS011;6916;51.504;7.416;2022-08-25T16:22:32;4.05;;;3.65;;
13687;SDS011;6916;51.504;7.416;2022-08-25T16:27:54;3.70;;;3.22;;
13687;SDS011;6916;51.504;7.416;2022-08-25T16:33:16;5.65;;;3.72;;
13687;SDS011;6916;51.504;7.416;2022-08-25T16:38:39;7.82;;;3.72;;
13687;SDS011;6916;51.504;7.416;2022-08-25T16:44:03;5.53;;;4.03;;
13687;SDS011;6916;51.504;7.416;2022-08-25T16:49:28;4.82;;;3.65;;
13687;SDS011;6916;51.504;7.416;2022-08-25T16:54:51;6.65;;;3.83;;
13687;SDS011;6916;51.504;7.416;2022-08-25T17:00:34;10.50;;;4.43;;
13687;SDS011;6916;51.504;7.416;2022-08-25T17:05:58;4.60;;;4.20;;
13687;SDS011;6916;51.504;7.416;2022-08-25T17:11:22;6.45;;;4.32;;
13687;SDS011;6916;51.504;7.416;2022-08-25T17:16:47;4.95;;;3.97;;
13687;SDS011;6916;51.504;7.416;2022-08-25T17:22:11;7.30;;;4.03;;
13687;SDS011;6916;51.504;7.416;2022-08-25T17:27:36;4.40;;;3.78;;
13687;SDS011;6916;51.504;7.416;2022-08-25T17:32:58;8.77;;;5.07;;
13687;SDS011;6916;51.504;7.416;2022-08-25T17:38:22;7.85;;;4.20;;
13687;SDS011;6916;51.504;7.416;2022-08-25T17:43:49;6.60;;;4.45;;
13687;SDS011;6916;51.504;7.416;2022-08-25T17:49:11;7.28;;;4.10;;
13687;SDS011;6916;51.504;7.416;2022-08-25T17:54:34;6.97;;;4.25;;
13687;SDS011;6916;51.504;7.416;2022-08-25T17:59:57;7.63;;;4.70;;
13687;SDS011;6916;51.504;7.416;2022-08-25T18:05:20;6.95;;;5.53;;
13687;SDS011;6916;51.504;7.416;2022-08-25T18:10:42;5.75;;;4.40;;
13687;SDS011;6916;51.504;7.416;2022-08-25T18:16:05;6.05;;;4.07;;
13687;SDS011;6916;51.504;7.416;2022-08-25T18:21:29;7.47;;;4.47;;
13687;SDS011;6916;51.504;7.416;2022-08-25T18:26:52;7.70;;;4.22;;
13687;SDS011;6916;51.504;7.416;2022-08-25T18:32:14;9.07;;;4.55;;
13687;SDS011;6916;51.504;7.416;2022-08-25T18:37:36;6.85;;;4.38;;
13687;SDS011;6916;51.504;7.416;2022-08-25T18:43:17;7.25;;;4.72;;
13687;SDS011;6916;51.504;7.416;2022-08-25T18:48:42;6.63;;;5.05;;
13687;SDS011;6916;51.504;7.416;2022-08-25T18:54:04;7.78;;;4.80;;
13687;SDS011;6916;51.504;7.416;2022-08-25T18:59:27;6.30;;;4.32;;
13687;SDS011;6916;51.504;7.416;2022-08-25T19:04:49;9.13;;;4.80;;
13687;SDS011;6916;51.504;7.416;2022-08-25T19:10:13;10.25;;;4.85;;
13687;SDS011;6916;51.504;7.416;2022-08-25T19:15:36;7.93;;;4.90;;
13687;SDS011;6916;51.504;7.416;2022-08-25T19:21:00;6.95;;;4.55;;
13687;SDS011;6916;51.504;7.416;2022-08-25T19:26:22;7.47;;;4.97;;
13687;SDS011;6916;51.504;7.416;2022-08-25T19:31:45;10.45;;;4.97;;
13687;SDS011;6916;51.504;7.416;2022-08-25T19:37:09;8.77;;;5.05;;
13687;SDS011;6916;51.504;7.416;2022-08-25T19:42:32;11.05;;;4.97;;
13687;SDS011;6916;51.504;7.416;2022-08-25T19:47:54;10.73;;;5.78;;
13687;SDS011;6916;51.504;7.416;2022-08-25T19:53:16;11.15;;;5.68;;
13687;SDS011;6916;51.504;7.416;2022-08-25T19:58:39;7.25;;;5.22;;
13687;SDS011;6916;51.504;7.416;2022-08-25T20:04:02;8.93;;;5.32;;
13687;SDS011;6916;51.504;7.416;2022-08-25T20:09:25;8.15;;;5.53;;
13687;SDS011;6916;51.504;7.416;2022-08-25T20:14:47;10.38;;;5.32;;
13687;SDS011;6916;51.504;7.416;2022-08-25T20:20:11;9.10;;;5.75;;
13687;SDS011;6916;51.504;7.416;2022-08-25T20:25:36;11.30;;;6.30;;
13687;SDS011;6916;51.504;7.416;2022-08-25T20:30:59;7.03;;;5.43;;
13687;SDS011;6916;51.504;7.416;2022-08-25T20:36:21;7.30;;;4.43;;
13687;SDS011;6916;51.504;7.416;2022-08-25T20:41:43;7.82;;;4.97;;
13687;SDS011;6916;51.504;7.416;2022-08-25T20:47:06;7.60;;;5.18;;
13687;SDS011;6916;51.504;7.416;2022-08-25T20:52:30;8.40;;;5.20;;
13687;SDS011;6916;51.504;7.416;2022-08-25T20:57:53;5.40;;;4.90;;
13687;SDS011;6916;51.504;7.416;2022-08-25T21:03:15;7.10;;;5.25;;
13687;SDS011;6916;51.504;7.416;2022-08-25T21:08:37;9.48;;;5.43;;
13687;SDS011;6916;51.504;7.416;2022-08-25T21:14:05;7.07;;;4.78;;
13687;SDS011;6916;51.504;7.416;2022-08-25T21:19:28;7.30;;;4.90;;
13687;SDS011;6916;51.504;7.416;2022-08-25T21:24:47;10.18;;;5.50;;
13687;SDS011;6916;51.504;7.416;2022-08-25T21:30:10;9.80;;;5.60;;
13687;SDS011;6916;51.504;7.416;2022-08-25T21:35:32;7.57;;;5.60;;
13687;SDS011;6916;51.504;7.416;2022-08-25T21:40:55;7.18;;;6.28;;
13687;SDS011;6916;51.504;7.416;2022-08-25T21:46:19;9.50;;;6.28;;
13687;SDS011;6916;51.504;7.416;2022-08-25T21:51:43;8.43;;;5.80;;
13687;SDS011;6916;51.504;7.416;2022-08-25T21:57:05;7.80;;;5.53;;
13687;SDS011;6916;51.504;7.416;2022-08-25T22:02:28;7.28;;;5.53;;
13687;SDS011;6916;51.504;7.416;2022-08-25T22:07:50;9.30;;;6.10;;
13687;SDS011;6916;51.504;7.416;2022-08-25T22:13:12;7.35;;;5.60;;
13687;SDS011;6916;51.504;7.416;2022-08-25T22:18:34;7.68;;;6.28;;
13687;SDS011;6916;51.504;7.416;2022-08-25T22:23:57;7.57;;;6.50;;
13687;SDS011;6916;51.504;7.416;2022-08-25T22:29:20;10.40;;;6.53;;
13687;SDS011;6916;51.504;7.416;2022-08-25T22:34:42;8.43;;;6.35;;
13687;SDS011;6916;51.504;7.416;2022-08-25T22:40:04;8.77;;;6.53;;
13687;SDS011;6916;51.504;7.416;2022-08-25T22:45:27;11.18;;;6.55;;
13687;SDS011;6916;51.504;7.416;2022-08-25T22:50:49;8.60;;;6.70;;
13687;SDS011;6916;51.504;7.416;2022-08-25T22:56:13;10.43;;;6.57;;
13687;SDS011;6916;51.504;7.416;2022-08-25T23:01:37;9.15;;;6.03;;
13687;SDS011;6916;51.504;7.416;2022-08-25T23:06:59;8.88;;;6.68;;
13687;SDS011;6916;51.504;7.416;2022-08-25T23:12:21;10.02;;;6.82;;
13687;SDS011;6916;51.504;7.416;2022-08-25T23:17:44;9.30;;;7.18;;
13687;SDS011;6916;51.504;7.416;2022-08-25T23:23:06;9.82;;;6.82;;
13687;SDS011;6916;51.504;7.416;2022-08-25T23:28:28;7.72;;;6.93;;
13687;SDS011;6916;51.504;7.416;2022-08-25T23:33:51;11.73;;;7.53;;
13687;SDS011;6916;51.504;7.416;2022-08-25T23:39:13;8.30;;;6.65;;
13687;SDS011;6916;51.504;7.416;2022-08-25T23:44:35;7.97;;;6.40;;
13687;SDS011;6916;51.504;7.416;2022-08-25T23:49:57;8.82;;;7.15;;
13687;SDS011;6916;51.504;7.416;2022-08-25T23:55:20;8.27;;;7.35;;
